Time;durP1;ratioP1;P1;durP2;ratioP2;P2;SDS_P1;SDS_P2;PMS_P1;PMS_P2;Temp;Humidity;BMP_temperature;BMP_pressure;BME280_temperature;BME280_humidity;BME280_pressure;Samples;Min_cycle;Max_cycle;Signal;HPM_P1;HPM_P2
2022/07/25 00:01:49;;;;;;;7.60;5.50;;;23.20;99.90;;;;;;5075157;28;20308;-85
2022/07/25 00:04:17;;;;;;;7.15;6.18;;;23.30;99.90;;;;;;5082439;28;20249;-85
2022/07/25 00:06:44;;;;;;;5.88;5.25;;;23.40;99.90;;;;;;5088862;28;20211;-83
2022/07/25 00:09:14;;;;;;;6.65;5.45;;;23.30;99.90;;;;;;5088272;28;20225;-86
2022/07/25 00:11:41;;;;;;;6.95;5.32;;;23.20;99.90;;;;;;5082751;28;20218;-84
2022/07/25 00:14:08;;;;;;;8.02;5.78;;;23.20;99.90;;;;;;5078976;28;20661;-84
2022/07/25 00:16:38;;;;;;;8.55;6.32;;;23.20;99.90;;;;;;5081445;28;20812;-84
2022/07/25 00:19:05;;;;;;;6.13;5.40;;;23.10;99.90;;;;;;5079269;28;20228;-84
2022/07/25 00:21:32;;;;;;;8.55;6.32;;;23.10;99.90;;;;;;5077943;28;20251;-83
2022/07/25 00:23:59;;;;;;;9.05;6.30;;;23.10;99.90;;;;;;5074484;28;20316;-84
2022/07/25 00:26:30;;;;;;;9.57;5.85;;;23.10;99.90;;;;;;5082370;28;20236;-84
2022/07/25 00:29:03;;;;;;;8.20;5.90;;;23.10;99.90;;;;;;5078656;28;20855;-85
2022/07/25 00:31:30;;;;;;;9.32;6.13;;;23.10;99.90;;;;;;5077929;28;20728;-84
2022/07/25 00:33:57;;;;;;;10.65;6.88;;;23.00;99.90;;;;;;5082442;28;20310;-86
2022/07/25 00:36:24;;;;;;;7.78;6.05;;;23.00;99.90;;;;;;5081913;28;20207;-83
2022/07/25 00:38:51;;;;;;;9.98;6.68;;;23.00;99.90;;;;;;5077466;28;20209;-84
2022/07/25 00:41:18;;;;;;;8.95;7.15;;;23.00;99.90;;;;;;5085181;28;20234;-85
2022/07/25 00:43:46;;;;;;;9.10;6.88;;;23.00;99.90;;;;;;5076082;28;20277;-85
2022/07/25 00:46:15;;;;;;;9.82;6.65;;;22.90;99.90;;;;;;5080860;28;20755;-83
2022/07/25 00:48:44;;;;;;;11.68;6.55;;;22.90;99.90;;;;;;5076627;28;20962;-84
2022/07/25 00:51:12;;;;;;;9.07;5.95;;;22.90;99.90;;;;;;5079619;28;20204;-83
2022/07/25 00:53:39;;;;;;;7.82;6.63;;;22.90;99.90;;;;;;5084852;28;20571;-84
2022/07/25 00:56:06;;;;;;;8.57;6.30;;;22.80;99.90;;;;;;5086092;28;20696;-85
2022/07/25 00:58:34;;;;;;;8.50;6.55;;;22.80;99.90;;;;;;5080862;28;20207;-84
2022/07/25 01:01:04;;;;;;;11.25;6.90;;;22.90;99.90;;;;;;5077854;28;20254;-85
2022/07/25 01:03:32;;;;;;;8.90;6.90;;;22.80;99.90;;;;;;5079807;28;20223;-83
2022/07/25 01:05:59;;;;;;;10.82;7.55;;;22.70;99.90;;;;;;5096208;28;20629;-83
2022/07/25 01:08:26;;;;;;;9.07;7.60;;;22.70;99.90;;;;;;5086579;28;20606;-83
2022/07/25 01:10:56;;;;;;;9.18;7.43;;;22.60;99.90;;;;;;5087244;28;20233;-85
2022/07/25 01:13:23;;;;;;;11.57;7.47;;;22.60;99.90;;;;;;5081648;28;20204;-84
2022/07/25 01:15:49;;;;;;;9.50;7.63;;;22.60;99.90;;;;;;5086537;28;20245;-85
2022/07/25 01:18:16;;;;;;;13.07;7.75;;;22.50;99.90;;;;;;5084928;28;20241;-85
2022/07/25 01:20:43;;;;;;;10.25;7.57;;;22.50;99.90;;;;;;5087478;28;20239;-85
2022/07/25 01:23:10;;;;;;;9.93;8.20;;;22.50;99.90;;;;;;5087147;28;20216;-83
2022/07/25 01:25:37;;;;;;;10.13;7.75;;;22.50;99.90;;;;;;5085123;28;20619;-84
2022/07/25 01:28:04;;;;;;;12.50;8.25;;;22.40;99.90;;;;;;5083276;28;20214;-85
2022/07/25 01:30:31;;;;;;;11.70;8.77;;;22.40;99.90;;;;;;5085148;28;20211;-83
2022/07/25 01:32:58;;;;;;;11.05;8.30;;;22.30;99.90;;;;;;5076806;28;20623;-84
2022/07/25 01:35:32;;;;;;;14.65;7.95;;;22.40;99.90;;;;;;5086947;28;20648;-84
2022/07/25 01:37:59;;;;;;;11.68;8.02;;;22.70;99.90;;;;;;5082479;28;20619;-83
2022/07/25 01:40:27;;;;;;;9.57;7.65;;;22.30;99.90;;;;;;5084009;28;20216;-85
2022/07/25 01:42:55;;;;;;;10.55;8.75;;;22.20;99.90;;;;;;5083969;28;20215;-85
2022/07/25 01:45:22;;;;;;;10.55;7.88;;;22.20;99.90;;;;;;5080997;28;20219;-83
2022/07/25 01:47:49;;;;;;;9.50;8.45;;;22.20;99.90;;;;;;5084851;28;20270;-82
2022/07/25 01:50:16;;;;;;;11.60;8.88;;;22.30;99.90;;;;;;5081573;28;20191;-83
2022/07/25 01:52:43;;;;;;;14.88;9.05;;;;;;;;;;5085198;28;20196;-84
2022/07/25 01:55:11;;;;;;;11.15;8.02;;;22.10;99.90;;;;;;5081616;28;20281;-84
2022/07/25 01:57:39;;;;;;;11.48;9.00;;;22.10;99.90;;;;;;5079496;28;20207;-84
2022/07/25 02:00:16;;;;;;;12.65;9.45;;;22.10;99.90;;;;;;5078027;28;21103;-83
2022/07/25 02:02:44;;;;;;;10.27;8.95;;;22.00;99.90;;;;;;5083557;28;20220;-83
2022/07/25 02:05:13;;;;;;;10.18;8.55;;;22.00;99.90;;;;;;5085805;28;20204;-84
2022/07/25 02:07:41;;;;;;;10.88;8.60;;;22.00;99.90;;;;;;5089387;28;20274;-84
2022/07/25 02:10:08;;;;;;;11.52;9.35;;;22.10;99.90;;;;;;5088886;28;20291;-83
2022/07/25 02:12:35;;;;;;;12.13;9.25;;;22.00;99.90;;;;;;5085528;28;20205;-84
2022/07/25 02:15:02;;;;;;;14.60;9.60;;;22.00;99.90;;;;;;5088636;28;20199;-83
2022/07/25 02:17:29;;;;;;;10.75;9.15;;;22.00;99.90;;;;;;5082680;28;20204;-84
2022/07/25 02:19:56;;;;;;;12.75;10.02;;;22.00;99.90;;;;;;5080492;28;20214;-83
2022/07/25 02:22:23;;;;;;;12.25;9.73;;;22.00;99.90;;;;;;5081767;28;20922;-84
2022/07/25 02:24:50;;;;;;;13.38;9.77;;;22.00;99.90;;;;;;5083595;28;20188;-83
2022/07/25 02:27:17;;;;;;;12.65;9.65;;;22.00;99.90;;;;;;5083156;28;20208;-83
2022/07/25 02:29:44;;;;;;;11.68;9.23;;;22.00;99.90;;;;;;5083439;28;20759;-84
2022/07/25 02:32:11;;;;;;;11.23;9.30;;;22.00;99.90;;;;;;5080719;28;20268;-83
2022/07/25 02:34:38;;;;;;;14.00;9.70;;;22.10;99.90;;;;;;5086051;28;20261;-82
2022/07/25 02:37:05;;;;;;;13.13;9.60;;;21.90;99.90;;;;;;5089269;28;20297;-85
2022/07/25 02:39:36;;;;;;;13.10;9.68;;;22.00;99.90;;;;;;5084536;28;20962;-84
2022/07/25 02:42:03;;;;;;;11.25;9.32;;;22.00;99.90;;;;;;5088258;28;20227;-83
2022/07/25 02:44:30;;;;;;;13.30;10.40;;;22.00;99.90;;;;;;5083504;28;20211;-83
2022/07/25 02:46:57;;;;;;;10.75;8.85;;;22.00;99.90;;;;;;5085968;28;20664;-84
2022/07/25 02:49:23;;;;;;;13.45;10.75;;;21.90;99.90;;;;;;5083571;28;20209;-83
2022/07/25 02:51:51;;;;;;;12.23;10.32;;;21.90;99.90;;;;;;5086752;28;20676;-83
2022/07/25 02:54:18;;;;;;;15.18;11.10;;;22.00;99.90;;;;;;5087140;28;20676;-84
2022/07/25 02:56:48;;;;;;;14.88;10.95;;;21.90;99.90;;;;;;5080490;28;20209;-85
2022/07/25 02:59:15;;;;;;;14.10;10.25;;;21.90;99.90;;;;;;5079147;28;20200;-83
2022/07/25 03:01:42;;;;;;;15.90;11.65;;;21.90;99.90;;;;;;5086127;28;20297;-83
2022/07/25 03:04:09;;;;;;;15.68;11.18;;;21.90;99.90;;;;;;5083815;28;20235;-84
2022/07/25 03:06:36;;;;;;;12.65;10.30;;;21.90;99.90;;;;;;5081340;28;20785;-85
2022/07/25 03:09:03;;;;;;;12.52;10.65;;;21.90;99.90;;;;;;5078639;28;20237;-85
2022/07/25 03:11:30;;;;;;;13.82;10.13;;;21.90;99.90;;;;;;5082344;28;20269;-83
2022/07/25 03:13:57;;;;;;;14.27;11.05;;;21.80;99.90;;;;;;5083785;28;20211;-85
2022/07/25 03:16:24;;;;;;;16.25;11.70;;;21.80;99.90;;;;;;5080820;28;20200;-84
2022/07/25 03:18:51;;;;;;;14.48;11.85;;;21.80;99.90;;;;;;5100165;28;20219;-83
2022/07/25 03:21:18;;;;;;;16.33;11.73;;;21.80;99.90;;;;;;5089147;28;20235;-83
2022/07/25 03:23:45;;;;;;;16.60;11.68;;;21.80;99.90;;;;;;5083597;28;20214;-84
2022/07/25 03:26:18;;;;;;;14.23;11.88;;;21.80;99.90;;;;;;5083178;28;20203;-83
2022/07/25 03:28:45;;;;;;;15.43;11.50;;;21.70;99.90;;;;;;5078478;28;20205;-83
2022/07/25 03:31:12;;;;;;;16.45;12.38;;;21.70;99.90;;;;;;5076035;28;20211;-84
2022/07/25 03:33:39;;;;;;;16.20;12.55;;;21.70;99.90;;;;;;5084474;28;20694;-84
2022/07/25 03:36:06;;;;;;;16.58;11.82;;;21.70;99.90;;;;;;5082144;28;20218;-81
2022/07/25 03:38:35;;;;;;;15.38;11.82;;;21.70;99.90;;;;;;5083953;28;20734;-85
2022/07/25 03:41:02;;;;;;;13.40;11.30;;;21.70;99.90;;;;;;5085925;28;20281;-83
2022/07/25 03:43:30;;;;;;;11.30;9.10;;;21.70;99.90;;;;;;5079201;28;20212;-83
2022/07/25 03:45:57;;;;;;;13.80;10.82;;;21.70;99.90;;;;;;5080784;28;20200;-84
2022/07/25 03:48:25;;;;;;;15.02;11.85;;;21.70;99.90;;;;;;5082380;28;20826;-85
2022/07/25 03:50:51;;;;;;;16.75;11.75;;;21.70;99.90;;;;;;5081427;28;20211;-83
2022/07/25 03:53:18;;;;;;;12.98;10.32;;;21.60;99.90;;;;;;5083303;28;20212;-83
2022/07/25 03:55:46;;;;;;;13.90;11.05;;;21.70;99.90;;;;;;5079151;28;20220;-84
2022/07/25 03:58:13;;;;;;;14.13;11.40;;;21.80;99.90;;;;;;5081158;28;20203;-84
2022/07/25 04:00:41;;;;;;;14.70;11.82;;;21.70;99.90;;;;;;5089113;28;20227;-84
2022/07/25 04:03:08;;;;;;;14.13;11.25;;;21.70;99.90;;;;;;5090480;28;20224;-83
2022/07/25 04:05:37;;;;;;;15.02;11.98;;;21.70;99.90;;;;;;5084533;28;20249;-83
2022/07/25 04:08:04;;;;;;;13.75;11.75;;;21.70;99.90;;;;;;5085533;28;20208;-82
2022/07/25 04:10:31;;;;;;;16.60;12.13;;;21.70;99.90;;;;;;5079244;28;20213;-84
2022/07/25 04:13:02;;;;;;;13.88;11.35;;;21.80;99.90;;;;;;5079550;28;20200;-85
2022/07/25 04:15:29;;;;;;;20.00;12.80;;;21.80;99.90;;;;;;5080486;28;20200;-84
2022/07/25 04:17:56;;;;;;;15.60;11.57;;;21.80;99.90;;;;;;5083404;28;20227;-85
2022/07/25 04:20:26;;;;;;;14.82;12.20;;;21.80;99.90;;;;;;5078754;28;20237;-83
2022/07/25 04:22:53;;;;;;;16.48;11.40;;;21.80;99.90;;;;;;5084845;28;20207;-84
2022/07/25 04:25:20;;;;;;;15.25;12.27;;;21.80;99.90;;;;;;5079374;28;20215;-84
2022/07/25 04:27:47;;;;;;;18.52;12.25;;;21.80;99.90;;;;;;5087242;28;20203;-84
2022/07/25 04:30:14;;;;;;;17.65;12.80;;;21.80;99.90;;;;;;5080787;28;20207;-84
2022/07/25 04:32:51;;;;;;;16.65;12.23;;;21.80;99.90;;;;;;5078890;28;20832;-83
2022/07/25 04:35:18;;;;;;;16.17;12.75;;;21.70;99.90;;;;;;5088221;28;20579;-82
2022/07/25 04:37:45;;;;;;;16.40;12.30;;;21.90;99.90;;;;;;5088385;28;20204;-85
2022/07/25 04:40:12;;;;;;;15.02;12.18;;;21.90;99.90;;;;;;5084368;28;20214;-83
2022/07/25 04:42:40;;;;;;;17.00;12.63;;;22.00;99.90;;;;;;5079569;28;20262;-85
2022/07/25 04:45:08;;;;;;;18.58;13.35;;;22.00;99.90;;;;;;5079271;28;20222;-85
2022/07/25 04:47:35;;;;;;;13.88;10.88;;;22.10;99.90;;;;;;5082622;28;20249;-84
2022/07/25 04:50:02;;;;;;;16.10;12.32;;;22.10;99.90;;;;;;5078680;28;20207;-84
2022/07/25 04:52:30;;;;;;;12.88;10.90;;;22.20;99.90;;;;;;5076017;28;20203;-87
2022/07/25 04:54:57;;;;;;;13.48;11.02;;;22.20;99.90;;;;;;5080280;28;20696;-84
2022/07/25 04:57:24;;;;;;;14.88;11.68;;;22.30;99.90;;;;;;5074642;28;20692;-86
2022/07/25 04:59:51;;;;;;;13.35;11.32;;;22.40;99.90;;;;;;5083756;28;20209;-85
2022/07/25 05:02:18;;;;;;;12.18;10.48;;;22.40;99.90;;;;;;5079153;28;20278;-84
2022/07/25 05:04:50;;;;;;;13.77;10.32;;;22.50;99.90;;;;;;5078991;28;21004;-85
2022/07/25 05:07:20;;;;;;;14.35;10.60;;;22.50;99.90;;;;;;5078991;28;20202;-86
2022/07/25 05:09:50;;;;;;;11.23;9.48;;;22.60;99.90;;;;;;5075011;28;20206;-84
2022/07/25 05:12:16;;;;;;;12.82;9.52;;;22.70;99.90;;;;;;5077936;28;20218;-84
2022/07/25 05:14:43;;;;;;;13.65;9.93;;;22.70;99.90;;;;;;5080375;28;20211;-85
2022/07/25 05:17:13;;;;;;;12.20;9.48;;;22.90;99.90;;;;;;5082703;28;20227;-84
2022/07/25 05:19:40;;;;;;;14.52;11.27;;;22.90;99.90;;;;;;5083341;28;20284;-83
2022/07/25 05:22:09;;;;;;;11.63;8.82;;;23.00;99.90;;;;;;5085367;28;20232;-85
2022/07/25 05:24:37;;;;;;;9.63;8.73;;;23.10;99.90;;;;;;5092351;28;20192;-83
2022/07/25 05:27:04;;;;;;;11.20;8.45;;;23.30;99.90;;;;;;5101261;28;20231;-86
2022/07/25 05:29:31;;;;;;;11.25;8.05;;;23.40;99.90;;;;;;5103189;28;20239;-85
2022/07/25 05:31:58;;;;;;;9.07;7.43;;;23.50;99.90;;;;;;5105969;28;20204;-87
2022/07/25 05:34:25;;;;;;;9.85;8.02;;;23.60;99.90;;;;;;5099455;28;20220;-85
2022/07/25 05:36:52;;;;;;;10.45;7.25;;;23.80;99.90;;;;;;5094607;28;20320;-85
2022/07/25 05:39:19;;;;;;;9.75;7.45;;;23.90;99.90;;;;;;5088004;28;20294;-84
2022/07/25 05:41:49;;;;;;;9.30;7.97;;;24.00;99.90;;;;;;5093824;28;20329;-86
2022/07/25 05:44:21;;;;;;;8.65;7.45;;;24.00;99.90;;;;;;5069310;28;20218;-85
2022/07/25 05:46:48;;;;;;;9.63;6.90;;;24.10;99.90;;;;;;5078572;28;20398;-85
2022/07/25 05:49:15;;;;;;;9.55;7.53;;;24.30;99.90;;;;;;5077587;28;20920;-84
2022/07/25 05:51:44;;;;;;;8.77;6.53;;;24.50;99.90;;;;;;5083829;28;20287;-85
2022/07/25 05:54:11;;;;;;;9.13;7.20;;;24.90;99.90;;;;;;5088151;28;20199;-86
2022/07/25 05:56:37;;;;;;;10.05;7.45;;;25.30;99.90;;;;;;5083331;28;20261;-85
2022/07/25 05:59:04;;;;;;;9.23;6.78;;;25.70;99.90;;;;;;5082144;28;20294;-86
2022/07/25 06:01:33;;;;;;;10.68;7.03;;;26.20;99.90;;;;;;5089348;28;20224;-85
2022/07/25 06:04:03;;;;;;;8.80;6.93;;;26.80;99.90;;;;;;5085544;28;20252;-86
2022/07/25 06:06:31;;;;;;;9.10;7.00;;;27.50;99.90;;;;;;5087399;28;20208;-85
2022/07/25 06:08:59;;;;;;;10.65;7.90;;;28.30;99.90;;;;;;5088011;28;20219;-84
2022/07/25 06:11:27;;;;;;;10.77;7.30;;;28.40;99.90;;;;;;5081437;28;20227;-85
2022/07/25 06:13:56;;;;;;;7.85;7.00;;;28.50;99.90;;;;;;5078433;28;20220;-85
2022/07/25 06:16:24;;;;;;;8.07;7.28;;;28.70;99.90;;;;;;5083529;28;20203;-86
2022/07/25 06:18:51;;;;;;;12.38;7.15;;;28.90;99.90;;;;;;5086063;28;20644;-86
2022/07/25 06:21:18;;;;;;;9.30;7.55;;;29.00;99.90;;;;;;5085082;28;20303;-86
2022/07/25 06:23:45;;;;;;;9.30;7.63;;;29.10;99.90;;;;;;5085236;28;20209;-85
2022/07/25 06:26:12;;;;;;;8.95;7.75;;;28.70;99.90;;;;;;5084536;28;20294;-86
2022/07/25 06:28:39;;;;;;;9.05;8.07;;;28.70;99.90;;;;;;5088278;28;20779;-87
2022/07/25 06:31:06;;;;;;;11.75;8.30;;;28.90;99.90;;;;;;5086820;28;20622;-85
2022/07/25 06:33:33;;;;;;;10.43;8.18;;;29.00;99.90;;;;;;5084618;28;20762;-86
2022/07/25 06:36:04;;;;;;;10.43;7.93;;;29.40;99.90;;;;;;5084846;28;20249;-85
2022/07/25 06:38:31;;;;;;;12.65;8.18;;;29.00;99.90;;;;;;5083530;28;20203;-85
2022/07/25 06:40:58;;;;;;;11.20;7.95;;;29.00;99.90;;;;;;5083434;28;20574;-85
2022/07/25 06:43:28;;;;;;;10.27;8.55;;;28.90;99.90;;;;;;5085245;28;20227;-84
2022/07/25 06:45:55;;;;;;;10.75;8.25;;;28.90;99.90;;;;;;5081095;28;20214;-86
2022/07/25 06:48:25;;;;;;;12.52;8.73;;;28.70;99.90;;;;;;5089107;28;20756;-86
2022/07/25 06:50:52;;;;;;;9.05;7.95;;;28.70;99.90;;;;;;5092456;28;20199;-86
2022/07/25 06:53:19;;;;;;;12.15;10.00;;;28.70;99.90;;;;;;5085246;28;20295;-85
2022/07/25 06:55:49;;;;;;;12.32;9.90;;;28.30;99.90;;;;;;5086327;28;20231;-87
2022/07/25 06:58:16;;;;;;;11.20;9.48;;;28.00;99.90;;;;;;5081939;28;20729;-86
2022/07/25 07:00:49;;;;;;;11.70;9.18;;;27.70;99.90;;;;;;5086611;28;20204;-86
2022/07/25 07:03:16;;;;;;;11.02;9.57;;;28.10;99.90;;;;;;5089384;28;20243;-85
2022/07/25 07:05:44;;;;;;;15.40;9.57;;;27.80;99.90;;;;;;5085984;28;20267;-85
2022/07/25 07:08:11;;;;;;;10.70;9.60;;;27.80;99.90;;;;;;5084491;28;20200;-86
2022/07/25 07:10:39;;;;;;;12.05;9.27;;;27.80;99.90;;;;;;5080354;28;20684;-87
2022/07/25 07:13:17;;;;;;;12.00;9.88;;;28.00;99.90;;;;;;5091548;28;20206;-86
2022/07/25 07:15:50;;;;;;;13.10;9.57;;;28.30;99.90;;;;;;5082814;28;20199;-86
2022/07/25 07:18:18;;;;;;;11.18;9.18;;;28.50;99.90;;;;;;5084797;28;20227;-85
2022/07/25 07:20:47;;;;;;;11.82;8.73;;;28.80;99.90;;;;;;5086988;28;20200;-85
2022/07/25 07:23:14;;;;;;;11.85;8.73;;;29.40;99.90;;;;;;5087934;28;20713;-85
2022/07/25 07:25:45;;;;;;;16.13;8.23;;;30.00;99.90;;;;;;5086069;28;20203;-86
2022/07/25 07:28:14;;;;;;;8.85;7.20;;;30.70;99.90;;;;;;5086772;28;20677;-85
2022/07/25 07:30:41;;;;;;;7.70;6.85;;;31.40;99.90;;;;;;5086173;28;20208;-85
2022/07/25 07:33:28;;;;;;;8.23;6.43;;;31.80;99.20;;;;;;5089323;28;20215;-84
2022/07/25 07:35:59;;;;;;;6.97;6.28;;;32.40;98.40;;;;;;5089304;28;20573;-84
2022/07/25 07:38:28;;;;;;;6.28;5.60;;;32.70;96.80;;;;;;5086664;28;20318;-88
2022/07/25 07:40:57;;;;;;;6.60;5.70;;;;;;;;;;5087293;28;20200;-85
2022/07/25 07:43:24;;;;;;;8.32;5.65;;;33.20;93.10;;;;;;5087073;28;20227;-88
2022/07/25 07:45:59;;;;;;;5.85;4.75;;;32.80;93.00;;;;;;5087706;28;20318;-87
2022/07/25 07:48:27;;;;;;;8.82;4.47;;;32.10;93.10;;;;;;5083560;28;20215;-86
2022/07/25 07:50:55;;;;;;;6.10;4.10;;;31.50;92.80;;;;;;5089002;28;20200;-86
2022/07/25 07:55:42;;;;;;;5.57;4.18;;;30.80;92.50;;;;;;5084419;28;20263;-86
2022/07/25 07:56:10;;;;;;;4.95;4.40;;;30.50;93.00;;;;;;5086547;28;20265;-86
2022/07/25 07:58:38;;;;;;;4.38;3.13;;;30.20;92.90;;;;;;5087857;28;20195;-85
2022/07/25 08:01:05;;;;;;;5.43;3.90;;;30.00;93.10;;;;;;5087102;28;20676;-84
2022/07/25 08:03:32;;;;;;;4.55;3.70;;;29.80;93.20;;;;;;5088011;28;20239;-85
2022/07/25 08:05:59;;;;;;;6.43;3.70;;;29.40;93.50;;;;;;5089508;28;20207;-85
2022/07/25 08:08:26;;;;;;;4.25;3.13;;;29.10;93.60;;;;;;5077786;28;20672;-85
2022/07/25 08:10:58;;;;;;;3.67;3.00;;;28.90;93.40;;;;;;5095215;28;20196;-85
2022/07/25 08:13:30;;;;;;;3.45;3.00;;;28.70;93.50;;;;;;5108429;28;20263;-85
2022/07/25 08:16:01;;;;;;;3.53;3.00;;;28.40;93.80;;;;;;5084723;28;20199;-85
2022/07/25 08:18:31;;;;;;;5.15;2.90;;;28.40;93.80;;;;;;5080778;28;20239;-85
2022/07/25 08:21:01;;;;;;;6.05;3.38;;;28.20;93.50;;;;;;5092164;28;20208;-85
2022/07/25 08:23:30;;;;;;;4.90;3.05;;;28.00;93.80;;;;;;5092881;28;20246;-85
2022/07/25 08:25:58;;;;;;;5.65;3.22;;;27.70;94.10;;;;;;5076847;28;20257;-88
2022/07/25 08:28:27;;;;;;;3.00;2.70;;;27.50;94.10;;;;;;5083541;28;20200;-87
2022/07/25 08:30:57;;;;;;;4.47;3.20;;;27.40;94.30;;;;;;5072670;28;20199;-86
2022/07/25 08:33:26;;;;;;;4.97;3.17;;;27.30;94.90;;;;;;5075010;28;20220;-87
2022/07/25 08:35:54;;;;;;;4.72;3.20;;;27.10;95.30;;;;;;5081049;28;20223;-84
2022/07/25 08:38:23;;;;;;;5.05;3.25;;;27.10;95.60;;;;;;5084049;28;20192;-88
2022/07/25 08:40:55;;;;;;;4.55;3.60;;;27.10;95.90;;;;;;5078714;28;20197;-87
2022/07/25 08:43:22;;;;;;;4.80;3.25;;;27.10;96.50;;;;;;5082009;28;20228;-87
2022/07/25 08:45:52;;;;;;;4.10;3.35;;;27.10;96.70;;;;;;5090605;28;20787;-87
2022/07/25 08:48:22;;;;;;;3.53;2.85;;;27.10;97.00;;;;;;5080971;28;20219;-88
2022/07/25 08:50:52;;;;;;;3.80;2.65;;;27.30;97.20;;;;;;5083868;28;20660;-86
2022/07/25 08:53:20;;;;;;;3.17;2.50;;;27.60;97.70;;;;;;5080220;28;20208;-86
2022/07/25 08:56:07;;;;;;;2.55;2.35;;;27.90;97.10;;;;;;5077598;28;20220;-88
2022/07/25 08:58:48;;;;;;;2.58;2.38;;;28.10;97.00;;;;;;5084633;28;20200;-88
2022/07/25 09:01:15;;;;;;;2.42;2.22;;;28.30;96.80;;;;;;5087066;28;20195;-87
2022/07/25 09:03:43;;;;;;;3.47;2.13;;;28.40;96.80;;;;;;5084499;28;20231;-85
2022/07/25 09:06:21;;;;;;;2.75;2.20;;;28.50;97.10;;;;;;5077903;28;20739;-87
2022/07/25 09:08:56;;;;;;;3.75;1.92;;;28.80;97.20;;;;;;5080218;28;20257;-88
2022/07/25 09:11:33;;;;;;;4.80;2.10;;;28.90;97.40;;;;;;5088119;28;21034;-86
2022/07/25 09:14:09;;;;;;;2.72;1.73;;;28.90;97.20;;;;;;5081452;28;20899;-89
2022/07/25 09:16:43;;;;;;;2.60;1.85;;;29.30;96.90;;;;;;5087635;28;20214;-86
2022/07/25 09:19:18;;;;;;;2.67;1.50;;;29.50;96.60;;;;;;5090179;28;20200;-87
2022/07/25 09:21:58;;;;;;;2.08;1.60;;;29.60;96.20;;;;;;5085186;28;20206;-87
2022/07/25 09:24:26;;;;;;;2.70;1.65;;;29.40;96.00;;;;;;5098170;28;20290;-86
2022/07/25 09:26:55;;;;;;;2.47;1.70;;;29.20;96.40;;;;;;5085242;28;20208;-86
2022/07/25 09:29:25;;;;;;;1.98;1.65;;;28.70;97.00;;;;;;5105447;28;20539;-86
2022/07/25 09:31:54;;;;;;;2.28;1.67;;;28.40;98.00;;;;;;5110978;28;20196;-85
2022/07/25 09:34:38;;;;;;;3.05;1.50;;;28.20;98.90;;;;;;5090375;28;20283;-85
2022/07/25 09:37:11;;;;;;;3.10;1.77;;;27.90;99.90;;;;;;5084968;28;20207;-86
2022/07/25 09:39:46;;;;;;;1.67;1.35;;;27.80;99.90;;;;;;5082934;28;20665;-87
2022/07/25 09:42:18;;;;;;;2.17;1.60;;;27.70;99.90;;;;;;5089093;28;20226;-86
2022/07/25 09:44:56;;;;;;;2.78;1.52;;;27.60;99.90;;;;;;5085697;28;20249;-86
2022/07/25 09:47:23;;;;;;;2.85;1.73;;;27.70;99.90;;;;;;5088950;28;20780;-85
2022/07/25 09:49:51;;;;;;;2.28;1.27;;;27.70;99.90;;;;;;5104753;28;20258;-86
2022/07/25 09:52:18;;;;;;;3.00;1.73;;;28.00;99.90;;;;;;5094452;28;20192;-86
2022/07/25 09:54:45;;;;;;;5.80;1.63;;;28.30;99.90;;;;;;5092217;28;20219;-86
2022/07/25 09:57:12;;;;;;;3.70;1.20;;;28.80;99.90;;;;;;5080696;28;20295;-87
2022/07/25 09:59:39;;;;;;;2.05;1.30;;;29.20;99.90;;;;;;5085224;28;20192;-85
2022/07/25 10:02:19;;;;;;;2.42;1.27;;;29.80;99.90;;;;;;5089757;28;20222;-87
2022/07/25 10:05:06;;;;;;;1.83;1.42;;;30.40;99.90;;;;;;5086326;28;20227;-85
2022/07/25 10:07:41;;;;;;;1.48;1.08;;;30.70;99.90;;;;;;5080538;28;20692;-85
2022/07/25 10:10:18;;;;;;;2.65;1.20;;;30.70;99.10;;;;;;5079626;28;20227;-88
2022/07/25 10:12:58;;;;;;;2.00;1.45;;;30.50;98.60;;;;;;5084651;28;20215;-88
2022/07/25 10:15:25;;;;;;;2.63;1.23;;;30.30;98.50;;;;;;5079995;28;20204;-87
2022/07/25 10:18:02;;;;;;;2.83;1.38;;;30.20;99.10;;;;;;5079143;28;20215;-86
2022/07/25 10:20:29;;;;;;;2.15;1.40;;;30.40;99.30;;;;;;5080758;28;20200;-87
2022/07/25 10:22:56;;;;;;;2.83;1.42;;;30.30;97.90;;;;;;5082530;28;20220;-85
2022/07/25 10:25:24;;;;;;;1.95;1.60;;;29.80;97.70;;;;;;5081435;28;20614;-89
2022/07/25 10:28:01;;;;;;;3.85;1.65;;;29.70;98.00;;;;;;5083916;28;20754;-85
2022/07/25 10:30:39;;;;;;;2.58;1.52;;;29.40;98.10;;;;;;5082893;28;20208;-87
2022/07/25 10:33:22;;;;;;;3.08;1.40;;;29.20;99.90;;;;;;5085913;28;20223;-87
2022/07/25 10:36:09;;;;;;;3.72;1.80;;;29.10;99.90;;;;;;5086275;28;20200;-88
2022/07/25 10:38:39;;;;;;;4.85;1.52;;;28.90;99.90;;;;;;5086149;28;20294;-86
2022/07/25 10:41:11;;;;;;;2.55;1.50;;;28.70;99.90;;;;;;5094827;28;20573;-85
2022/07/25 10:43:40;;;;;;;4.13;1.60;;;28.60;99.90;;;;;;5089701;28;20711;-86
2022/07/25 10:46:17;;;;;;;2.85;1.40;;;28.60;99.90;;;;;;5083550;28;20236;-85
2022/07/25 10:48:57;;;;;;;3.03;1.40;;;28.60;99.90;;;;;;5085888;28;20254;-86
2022/07/25 10:51:30;;;;;;;2.60;1.48;;;28.60;99.50;;;;;;5088040;28;20563;-85
2022/07/25 10:53:57;;;;;;;2.33;1.33;;;28.50;99.10;;;;;;5086002;28;20208;-88
2022/07/25 10:56:27;;;;;;;2.95;1.50;;;28.60;99.00;;;;;;5085411;28;20227;-86
2022/07/25 10:58:57;;;;;;;3.20;1.42;;;28.90;99.50;;;;;;5092204;28;20791;-86
2022/07/25 11:01:26;;;;;;;3.08;1.48;;;29.10;98.30;;;;;;5090241;28;20229;-86
2022/07/25 11:04:00;;;;;;;2.75;1.40;;;29.00;98.10;;;;;;5088168;28;20235;-87
2022/07/25 11:06:35;;;;;;;2.50;1.67;;;28.90;98.10;;;;;;5083624;28;20212;-86
2022/07/25 11:09:23;;;;;;;4.68;1.70;;;28.70;98.80;;;;;;5084378;28;20195;-85
2022/07/25 11:11:58;;;;;;;3.00;1.55;;;28.60;99.00;;;;;;5089446;28;20216;-85
2022/07/25 11:14:31;;;;;;;3.22;1.45;;;28.30;98.30;;;;;;5079823;28;20674;-86
2022/07/25 11:17:13;;;;;;;3.47;1.65;;;28.20;98.00;;;;;;5084746;28;20296;-86
2022/07/25 11:19:42;;;;;;;4.82;1.88;;;28.00;98.30;;;;;;5083011;28;20245;-86
2022/07/25 11:22:14;;;;;;;3.40;1.80;;;28.10;98.70;;;;;;5086942;28;20211;-87
2022/07/25 11:24:44;;;;;;;3.67;2.00;;;28.20;99.10;;;;;;5086355;28;20200;-88
2022/07/25 11:27:24;;;;;;;4.68;2.40;;;28.20;99.30;;;;;;5089677;28;20200;-88
2022/07/25 11:29:51;;;;;;;4.13;1.98;;;28.20;99.90;;;;;;5088045;28;20665;-85
2022/07/25 11:32:20;;;;;;;4.93;2.90;;;28.30;99.90;;;;;;5084479;28;20216;-86
2022/07/25 11:34:54;;;;;;;7.07;3.00;;;28.40;99.90;;;;;;5082356;28;20290;-86
2022/07/25 11:37:21;;;;;;;4.18;2.95;;;28.40;99.90;;;;;;5086341;28;20214;-88
2022/07/25 11:39:49;;;;;;;3.92;2.88;;;28.40;99.90;;;;;;5088644;28;20612;-87
2022/07/25 11:42:19;;;;;;;5.32;2.90;;;28.50;99.90;;;;;;5079504;28;20204;-86
2022/07/25 11:44:51;;;;;;;5.97;3.10;;;28.60;99.90;;;;;;5082840;28;20224;-85
2022/07/25 11:47:32;;;;;;;7.10;2.90;;;28.60;99.90;;;;;;5081866;28;20228;-89
2022/07/25 11:50:02;;;;;;;6.40;2.90;;;28.40;99.90;;;;;;5087215;28;20205;-87
2022/07/25 11:52:32;;;;;;;4.05;2.78;;;28.20;99.90;;;;;;5083700;28;20879;-86
2022/07/25 11:55:08;;;;;;;4.30;2.95;;;28.10;99.90;;;;;;5086742;28;20230;-85
2022/07/25 11:57:45;;;;;;;5.85;3.10;;;28.00;99.90;;;;;;5079739;28;20269;-85
2022/07/25 12:00:21;;;;;;;5.22;3.05;;;28.00;99.90;;;;;;5081881;28;21031;-88
2022/07/25 12:02:50;;;;;;;5.90;2.53;;;28.20;99.90;;;;;;5089081;28;20724;-86
2022/07/25 12:05:20;;;;;;;3.83;2.65;;;28.20;99.90;;;;;;5082144;28;20208;-86
2022/07/25 12:07:52;;;;;;;5.28;2.70;;;28.10;99.90;;;;;;5086650;28;20697;-85
2022/07/25 12:10:23;;;;;;;4.88;2.65;;;27.90;99.90;;;;;;5080767;28;20771;-88
2022/07/25 12:13:00;;;;;;;7.25;3.20;;;27.60;99.90;;;;;;5087452;28;20273;-86
2022/07/25 12:15:31;;;;;;;3.85;1.92;;;27.50;99.90;;;;;;5081606;28;20203;-88
2022/07/25 12:18:09;;;;;;;3.92;1.83;;;27.50;99.90;;;;;;5085615;28;20990;-86
2022/07/25 12:20:41;;;;;;;3.45;1.70;;;27.50;99.70;;;;;;5094189;28;20204;-86
2022/07/25 12:23:12;;;;;;;5.22;1.80;;;27.50;98.90;;;;;;5087780;28;20764;-87
2022/07/25 12:25:42;;;;;;;7.38;1.95;;;27.70;99.20;;;;;;5104638;28;20873;-86
2022/07/25 12:28:15;;;;;;;6.50;2.15;;;27.90;98.50;;;;;;5099523;28;20196;-86
2022/07/25 12:30:44;;;;;;;6.15;2.13;;;27.80;98.20;;;;;;5100632;28;20199;-86
2022/07/25 12:33:11;;;;;;;4.95;2.30;;;27.70;98.30;;;;;;5101895;28;20231;-86
2022/07/25 12:35:43;;;;;;;5.05;2.15;;;27.70;98.40;;;;;;5105885;28;20740;-86
2022/07/25 12:38:18;;;;;;;4.55;1.95;;;27.80;98.50;;;;;;5110050;28;20206;-86
2022/07/25 12:40:45;;;;;;;8.90;1.98;;;27.90;98.40;;;;;;5101695;28;20889;-87
2022/07/25 12:43:14;;;;;;;7.32;2.92;;;27.80;98.60;;;;;;5106309;28;20212;-87
2022/07/25 12:45:43;;;;;;;7.72;2.47;;;28.00;98.50;;;;;;5110163;28;20184;-86
2022/07/25 12:48:19;;;;;;;6.07;2.45;;;28.10;98.70;;;;;;5105479;28;20211;-87
2022/07/25 12:50:46;;;;;;;6.25;2.05;;;28.00;98.70;;;;;;5106527;28;20254;-88
2022/07/25 12:53:25;;;;;;;4.10;2.50;;;27.90;98.80;;;;;;5100260;28;20672;-86